A- A+ FrançaisEnglishEspañol中国

Services sur Internet Soldes sur Internet Des idées de cadeaux Météo Météo aéro

La météo à : Autours de vous St-Nazaire-Montoir Grenoble-Le-Versoud Biarritz-Bayonne-Anglet Pau-Pyrénées

carte TEMSI

Pour illustration, la carte TEMSI n'est pas mise à jour

La météo aéronautique pour les pilotes, la préparation du vol avec les METAR (METeorological Aerodrome Report, message d'observation des conditions météorologiques pour l'aviation) et Les TAF (Terminal Aerodrome Forecast : message de prévision à court terme des conditions météorologiques pour l'aviation). Et les autres ressources comme les VAC (Visual Approch Chart) et les NOTAM (Notice To Airman) pour préprer les vols.

Aéroport Aalbourg (Danemark) / OACI EKYT/ IATA AAL

L'altitude de l'aéroport Aalbourg est de 3 m = 10 ft. Il est situé à proximité de Aalborg (Danemark). La météo générale à 5 jours est disponible pour Vadum situé à 2.8 km.

METAR de l'aéroport Aalbourg - EKYT

EKYT 101520Z AUTO 16014KT 9999 BKN140/// 04/01 Q1011 R26L/710195

Décodage du METAR de l'aéroport Aalbourg (DK)

METAR émis par EKYT le mardi 10 décembre 2019 à 15:20 heure TU. C'est un METAR généré automatiquement, il y a 16 minutes.

La visibilité est de supérieure à 10 km = supérieure à 6.2 sm.

La température est de 4°C = 39 °F et le point rosée est de 1°C = 34 °F . Ce qui correspond à 81% d'humidité relative.

Le QNH est de 1011 hPa = 29.85 inHg

Vent de 14 kt = 26 km/h, orienté à 160°.

Nuages : Couverture nuageuse fragmentée à 14000 ft = 4270 mètres.

R26L/710195

TAF de l'aéroport Aalbourg - EKYT

EKYT 101424Z 1015/1115 18012KT 9999 BKN040

EKYT 101424Z 1015/1115 18012KT 9999 couverture nuageuse fragmentée à 040

Aéroport à proximité de Aalbourg

Météo générale à 5 jours à Vadum (2.8 km)Aéroport Aars Flyveplads (36 km)Aéroport Saeby (44 km)Aéroport Sindal (51 km)Aéroport Randers (66 km)Aéroport Thisted (69 km)Aéroport Morso (71 km)

VAC de l'aéroport Aalbourg - EKYT

La carte d'approche à vue (VAC Visual Approah Chart) est fournie sans aucune garantie de son actualité. Le pilote est le seul responsable de la vérification de sa validité avant de l'utiliser opérationnellement pour préparer un vol ou l'utiliser lors de sa navigation.

VAC de EKYT

Vue aérienne de l'aéroport Aalbourg

NOTAM de l'aéroport Aalbourg

Les NOTAM sont fournis sans aucune garantie de leur actualité. Le pilote est le seul responsable de la vérification de sa validité avant de l'utiliser opérationnellement pour préparer un vol ou l'utiliser lors de sa navigation.

Pas de NOTAM

Sources des données